createdAt,value
2019-05-12T00:00:24.693Z,5.73
2019-05-12T00:02:53.870Z,7.40
2019-05-12T00:05:23.025Z,6.83
2019-05-12T00:07:52.316Z,5.90
2019-05-12T00:10:21.461Z,5.00
2019-05-12T00:12:50.616Z,5.00
2019-05-12T00:15:20.009Z,5.97
2019-05-12T00:17:49.265Z,5.87
2019-05-12T00:20:18.651Z,4.97
2019-05-12T00:22:51.389Z,5.17
2019-05-12T00:25:20.531Z,4.87
2019-05-12T00:27:49.835Z,4.77
2019-05-12T00:30:38.926Z,5.03
2019-05-12T00:33:09.429Z,5.40
2019-05-12T00:35:38.871Z,6.13
2019-05-12T00:38:09.145Z,5.53
2019-05-12T00:40:39.766Z,5.20
2019-05-12T00:43:09.505Z,7.07
2019-05-12T00:45:39.094Z,8.57
2019-05-12T00:48:09.404Z,12.10
2019-05-12T00:50:39.033Z,13.97
2019-05-12T00:53:09.390Z,10.83
2019-05-12T00:55:38.726Z,9.87
2019-05-12T00:58:08.832Z,11.77
2019-05-12T01:00:40.654Z,11.03
2019-05-12T01:03:09.767Z,14.03
2019-05-12T01:05:39.462Z,13.70
2019-05-12T01:08:09.658Z,12.80
2019-05-12T01:10:39.416Z,14.83
2019-05-12T01:13:09.058Z,12.67
2019-05-12T01:15:38.575Z,14.07
2019-05-12T01:18:09.279Z,15.03
2019-05-12T01:20:39.320Z,14.00
2019-05-12T01:23:09.048Z,13.53
2019-05-12T01:25:39.645Z,14.20
2019-05-12T01:28:09.142Z,18.00
2019-05-12T01:30:39.023Z,17.53
2019-05-12T01:33:09.023Z,15.63
2019-05-12T01:35:39.016Z,20.80
2019-05-12T01:38:08.573Z,21.33
2019-05-12T01:40:39.562Z,19.47
2019-05-12T01:43:09.156Z,21.03
2019-05-12T01:45:38.672Z,20.63
2019-05-12T01:48:09.197Z,21.70
2019-05-12T01:50:39.129Z,23.17
2019-05-12T01:53:08.746Z,23.03
2019-05-12T01:55:38.833Z,23.63
2019-05-12T01:58:08.751Z,22.30
2019-05-12T02:00:39.045Z,21.50
2019-05-12T02:03:09.424Z,22.30
2019-05-12T02:05:41.143Z,24.43
2019-05-12T02:08:14.641Z,23.07
2019-05-12T02:10:44.419Z,23.70
2019-05-12T02:13:13.588Z,20.03
2019-05-12T02:15:43.119Z,19.80
2019-05-12T02:18:12.263Z,24.37
2019-05-12T02:20:41.467Z,21.83
2019-05-12T02:23:10.839Z,24.70
2019-05-12T02:25:39.988Z,23.80
2019-05-12T02:28:09.617Z,23.13
2019-05-12T02:30:41.404Z,21.90
2019-05-12T02:33:09.813Z,19.23
2019-05-12T02:35:39.005Z,20.13
2019-05-12T02:38:08.228Z,19.23
2019-05-12T02:40:37.472Z,25.07
2019-05-12T02:43:06.649Z,21.53
2019-05-12T02:45:36.220Z,21.37
2019-05-12T02:48:05.829Z,21.80
2019-05-12T02:50:37.916Z,22.17
2019-05-12T02:53:07.873Z,21.50
2019-05-12T02:55:37.250Z,20.43
2019-05-12T02:58:06.721Z,23.47
2019-05-12T03:00:37.125Z,24.57
2019-05-12T03:03:08.810Z,24.10
2019-05-12T03:05:40.022Z,23.07
2019-05-12T03:08:09.406Z,22.90
2019-05-12T03:10:38.863Z,22.83
2019-05-12T03:13:07.987Z,23.20
2019-05-12T03:15:37.736Z,21.50
2019-05-12T03:18:07.291Z,25.13
2019-05-12T03:20:36.588Z,23.57
2019-05-12T03:23:06.861Z,24.97
2019-05-12T03:25:37.060Z,28.10
2019-05-12T03:28:09.339Z,26.60
2019-05-12T03:30:40.030Z,25.30
2019-05-12T03:33:11.082Z,19.13
2019-05-12T03:35:43.622Z,21.73
2019-05-12T03:38:10.479Z,21.83
2019-05-12T03:40:39.595Z,21.90
2019-05-12T03:43:08.959Z,26.87
2019-05-12T03:45:38.098Z,23.97
2019-05-12T03:48:07.360Z,24.87
2019-05-12T03:50:36.610Z,23.30
2019-05-12T03:53:09.938Z,21.33
2019-05-12T03:55:41.817Z,20.20
2019-05-12T03:58:07.949Z,20.63
2019-05-12T04:00:37.182Z,18.83
2019-05-12T04:03:06.446Z,18.30
2019-05-12T04:05:36.713Z,17.43
2019-05-12T04:08:06.594Z,14.10
2019-05-12T04:10:36.871Z,15.20
2019-05-12T04:13:06.635Z,13.20
2019-05-12T04:15:36.079Z,11.60
2019-05-12T04:18:06.503Z,13.57
2019-05-12T04:20:36.606Z,10.27
2019-05-12T04:23:06.986Z,13.20
2019-05-12T04:25:51.195Z,11.10
2019-05-12T04:28:07.363Z,12.83
2019-05-12T04:30:36.735Z,13.40
2019-05-12T04:33:06.130Z,9.10
2019-05-12T04:35:36.005Z,12.70
2019-05-12T04:38:05.709Z,9.37
2019-05-12T04:40:36.111Z,11.43
2019-05-12T04:43:06.756Z,12.77
2019-05-12T04:45:36.621Z,13.13
2019-05-12T04:48:06.375Z,11.83
2019-05-12T04:50:36.450Z,9.47
2019-05-12T04:53:06.777Z,8.13
2019-05-12T04:55:36.626Z,6.67
2019-05-12T04:58:06.563Z,13.73
2019-05-12T05:00:36.134Z,10.33
2019-05-12T05:03:06.063Z,12.63
2019-05-12T05:05:36.199Z,8.83
2019-05-12T05:08:05.933Z,7.80
2019-05-12T05:10:35.205Z,7.80
2019-05-12T05:13:05.576Z,9.07
2019-05-12T05:15:35.574Z,9.73
2019-05-12T05:18:06.769Z,8.40
2019-05-12T05:20:35.835Z,9.57
2019-05-12T05:23:05.043Z,9.30
2019-05-12T05:25:35.289Z,15.63
2019-05-12T05:28:04.913Z,9.53
2019-05-12T05:30:34.496Z,13.37
2019-05-12T05:33:06.073Z,8.40
2019-05-12T05:35:39.604Z,11.03
2019-05-12T05:38:10.744Z,8.83
2019-05-12T05:40:37.902Z,14.13
2019-05-12T05:43:18.593Z,9.10
2019-05-12T05:45:37.988Z,6.73
2019-05-12T05:48:10.085Z,11.63
2019-05-12T05:50:38.256Z,9.47
2019-05-12T05:53:09.336Z,7.77
2019-05-12T05:55:38.817Z,8.17
2019-05-12T05:58:10.305Z,9.20
2019-05-12T06:00:39.590Z,9.20
2019-05-12T06:03:14.870Z,8.13
2019-05-12T06:05:39.798Z,6.57
2019-05-12T06:08:09.809Z,7.43
2019-05-12T06:10:40.659Z,9.03
2019-05-12T06:13:10.274Z,7.80
2019-05-12T06:15:40.924Z,11.23
2019-05-12T06:18:10.338Z,8.60
2019-05-12T06:20:39.696Z,7.87
2019-05-12T06:23:09.129Z,14.77
2019-05-12T06:25:49.388Z,8.87
2019-05-12T06:28:09.701Z,16.50
2019-05-12T06:30:44.248Z,10.43
2019-05-12T06:33:09.786Z,11.47
2019-05-12T06:35:42.283Z,9.40
2019-05-12T06:38:09.888Z,6.77
2019-05-12T06:40:40.990Z,9.83
2019-05-12T06:43:10.190Z,4.93
2019-05-12T06:45:42.474Z,7.63
2019-05-12T06:48:10.335Z,6.43
2019-05-12T06:50:39.614Z,8.47
2019-05-12T06:53:08.714Z,10.23
2019-05-12T06:55:39.413Z,7.80
2019-05-12T06:58:08.748Z,10.07
2019-05-12T07:00:37.924Z,5.80
2019-05-12T07:03:07.089Z,8.80
2019-05-12T07:05:38.542Z,5.47
2019-05-12T07:08:07.130Z,9.60
2019-05-12T07:10:43.083Z,4.23
2019-05-12T07:13:07.456Z,6.97
2019-05-12T07:15:40.463Z,9.75
2019-05-12T07:18:14.058Z,5.23
2019-05-12T07:20:44.034Z,10.30
2019-05-12T07:23:14.272Z,6.67
2019-05-12T07:25:44.506Z,7.37
2019-05-12T07:28:14.552Z,4.30
2019-05-12T07:30:44.271Z,5.10
2019-05-12T07:33:14.513Z,7.43
2019-05-12T07:35:53.342Z,7.87
2019-05-12T07:38:25.894Z,8.30
2019-05-12T07:41:00.762Z,6.50
2019-05-12T07:43:33.724Z,6.87
2019-05-12T07:46:07.121Z,5.20
2019-05-12T07:48:40.343Z,5.97
2019-05-12T07:51:08.712Z,6.17
2019-05-12T07:53:40.210Z,8.10
2019-05-12T07:56:09.416Z,7.20
2019-05-12T07:58:47.489Z,5.40
2019-05-12T08:01:14.558Z,5.47
2019-05-12T08:03:43.800Z,7.00
2019-05-12T08:06:14.210Z,7.67
2019-05-12T08:08:50.240Z,5.80
2019-05-12T08:11:15.064Z,4.97
2019-05-12T08:13:44.300Z,5.30
2019-05-12T08:16:14.189Z,6.53
2019-05-12T08:18:44.430Z,5.30
2019-05-12T08:21:14.159Z,4.93
2019-05-12T08:23:44.417Z,10.07
2019-05-12T08:26:18.655Z,5.30
2019-05-12T08:28:44.870Z,11.23
2019-05-12T08:31:14.264Z,5.27
2019-05-12T08:33:43.765Z,6.83
2019-05-12T08:36:16.191Z,3.97
2019-05-12T08:38:44.549Z,4.20
2019-05-12T08:41:14.635Z,5.10
2019-05-12T08:43:47.135Z,4.17
2019-05-12T08:46:15.888Z,7.70
2019-05-12T08:48:45.396Z,4.73
2019-05-12T08:51:19.461Z,7.13
2019-05-12T08:53:45.486Z,6.67
2019-05-12T08:56:19.779Z,4.57
2019-05-12T08:58:50.944Z,5.13
2019-05-12T09:01:20.414Z,7.50
2019-05-12T09:03:47.825Z,5.07
2019-05-12T09:06:19.750Z,6.50
2019-05-12T09:08:49.476Z,3.60
2019-05-12T09:11:18.905Z,5.53
2019-05-12T09:13:54.346Z,7.40
2019-05-12T09:16:19.000Z,4.23
2019-05-12T09:18:48.168Z,4.20
2019-05-12T09:21:17.336Z,5.23
2019-05-12T09:23:46.545Z,4.63
2019-05-12T09:26:18.585Z,8.87
2019-05-12T09:28:50.332Z,3.33
2019-05-12T09:31:19.387Z,5.47
2019-05-12T09:33:48.432Z,6.13
2019-05-12T09:36:21.688Z,2.67
2019-05-12T09:38:55.856Z,3.53
2019-05-12T09:41:19.822Z,6.10
2019-05-12T09:43:50.507Z,4.23
2019-05-12T09:46:19.942Z,5.10
2019-05-12T09:48:52.342Z,7.27
2019-05-12T09:51:19.994Z,6.03
2019-05-12T09:53:51.166Z,5.77
2019-05-12T09:56:20.044Z,4.10
2019-05-12T09:59:00.787Z,5.60
2019-05-12T10:01:20.218Z,6.03
2019-05-12T10:03:49.425Z,5.73
2019-05-12T10:06:21.245Z,7.30
2019-05-12T10:08:49.500Z,4.97
2019-05-12T10:11:20.810Z,6.20
2019-05-12T10:13:49.603Z,6.67
2019-05-12T10:16:18.817Z,4.53
2019-05-12T10:18:51.205Z,6.23
2019-05-12T10:21:19.017Z,5.80
2019-05-12T10:23:51.495Z,5.23
2019-05-12T10:26:19.211Z,7.23
2019-05-12T10:28:51.865Z,5.37
2019-05-12T10:31:19.252Z,8.93
2019-05-12T10:33:48.993Z,6.40
2019-05-12T10:36:19.427Z,6.17
2019-05-12T10:38:48.651Z,3.20
2019-05-12T10:41:18.433Z,3.70
2019-05-12T10:43:48.324Z,6.97
2019-05-12T10:46:26.955Z,6.43
2019-05-12T10:48:49.775Z,4.10
2019-05-12T10:51:19.020Z,10.83
2019-05-12T10:53:54.857Z,6.80
2019-05-12T10:56:19.132Z,6.80
2019-05-12T10:58:48.298Z,4.03
2019-05-12T11:01:17.483Z,6.23
2019-05-12T11:03:50.744Z,4.90
2019-05-12T11:06:17.627Z,7.27
2019-05-12T11:08:51.101Z,4.23
2019-05-12T11:11:17.674Z,3.93
2019-05-12T11:13:49.907Z,6.00
2019-05-12T11:16:22.864Z,3.07
2019-05-12T11:18:48.616Z,5.80
2019-05-12T11:21:17.825Z,3.93
2019-05-12T11:23:47.002Z,6.80
2019-05-12T11:26:16.141Z,4.63
2019-05-12T11:28:45.382Z,5.67
2019-05-12T11:31:14.608Z,4.27
2019-05-12T11:33:43.837Z,3.73
2019-05-12T11:36:13.636Z,3.60
2019-05-12T11:38:44.340Z,6.73
2019-05-12T11:41:16.110Z,6.07
2019-05-12T11:43:44.713Z,4.43
2019-05-12T11:46:14.069Z,2.87
2019-05-12T11:48:46.285Z,5.43
2019-05-12T11:51:14.508Z,5.20
2019-05-12T11:53:44.501Z,3.80
2019-05-12T11:56:13.989Z,4.07
2019-05-12T11:58:49.636Z,4.05
2019-05-12T12:01:16.157Z,3.67
2019-05-12T12:03:45.390Z,4.33
2019-05-12T12:06:14.688Z,2.58
2019-05-12T12:08:44.204Z,3.62
2019-05-12T12:11:18.881Z,4.62
2019-05-12T12:13:44.343Z,4.72
2019-05-12T12:16:14.147Z,3.97
2019-05-12T12:18:46.618Z,4.20
2019-05-12T12:21:14.332Z,4.33
2019-05-12T12:23:47.273Z,3.23
2019-05-12T12:26:28.258Z,4.07
2019-05-12T12:28:55.492Z,5.27
2019-05-12T12:31:29.508Z,4.80
2019-05-12T12:33:55.592Z,4.37
2019-05-12T12:36:25.262Z,2.60
2019-05-12T12:38:54.546Z,4.67
2019-05-12T12:41:23.821Z,4.50
2019-05-12T12:43:54.070Z,8.60
2019-05-12T12:46:26.799Z,5.63
2019-05-12T12:49:00.415Z,4.03
2019-05-12T12:51:26.800Z,11.30
2019-05-12T12:53:56.063Z,1.57
2019-05-12T12:56:29.945Z,2.27
2019-05-12T12:58:56.134Z,4.95
2019-05-12T13:01:28.548Z,4.60
2019-05-12T13:03:59.270Z,1.55
2019-05-12T13:06:27.114Z,4.70
2019-05-12T13:08:56.244Z,5.40
2019-05-12T13:11:33.242Z,2.40
2019-05-12T13:13:56.437Z,1.62
2019-05-12T13:16:25.689Z,4.35
2019-05-12T13:18:54.857Z,1.70
2019-05-12T13:21:24.005Z,6.60
2019-05-12T13:23:53.939Z,2.60
2019-05-12T13:26:23.889Z,3.93
2019-05-12T13:28:54.916Z,2.73
2019-05-12T13:31:24.675Z,2.10
2019-05-12T13:33:54.953Z,2.37
2019-05-12T13:36:29.624Z,4.55
2019-05-12T13:38:55.789Z,3.77
2019-05-12T13:41:24.928Z,3.20
2019-05-12T13:43:56.130Z,2.90
2019-05-12T13:46:25.061Z,1.70
2019-05-12T13:48:56.131Z,5.87
2019-05-12T13:51:25.222Z,7.17
2019-05-12T13:53:54.371Z,2.20
2019-05-12T13:56:25.370Z,2.03
2019-05-12T13:58:54.454Z,1.10
2019-05-12T14:01:24.844Z,7.13
2019-05-12T14:03:54.198Z,3.20
2019-05-12T14:06:31.774Z,2.70
2019-05-12T14:08:54.454Z,9.07
2019-05-12T14:11:24.046Z,2.23
2019-05-12T14:13:53.321Z,2.60
2019-05-12T14:16:23.918Z,2.37
2019-05-12T14:18:57.208Z,2.00
2019-05-12T14:21:24.554Z,2.37
2019-05-12T14:23:54.051Z,3.43
2019-05-12T14:26:24.251Z,1.23
2019-05-12T14:28:53.560Z,2.07
2019-05-12T14:31:30.044Z,2.73
2019-05-12T14:33:54.113Z,3.23
2019-05-12T14:36:26.521Z,2.20
2019-05-12T14:38:54.267Z,2.80
2019-05-12T14:41:26.518Z,3.37
2019-05-12T14:44:01.814Z,6.10
2019-05-12T14:46:25.672Z,3.20
2019-05-12T14:48:54.796Z,1.63
2019-05-12T14:51:24.559Z,2.50
2019-05-12T14:53:56.039Z,2.17
2019-05-12T14:56:25.371Z,2.40
2019-05-12T14:58:56.519Z,2.53
2019-05-12T15:01:38.442Z,4.07
2019-05-12T15:03:56.475Z,1.77
2019-05-12T15:06:29.559Z,2.37
2019-05-12T15:08:56.561Z,1.23
2019-05-12T15:11:25.712Z,1.80
2019-05-12T15:13:54.920Z,3.63
2019-05-12T15:16:24.072Z,6.30
2019-05-12T15:18:54.162Z,1.77
2019-05-12T15:21:27.469Z,5.10
2019-05-12T15:23:54.450Z,2.10
2019-05-12T15:26:24.207Z,2.53
2019-05-12T15:28:54.314Z,2.53
2019-05-12T15:31:23.731Z,2.83
2019-05-12T15:33:52.921Z,2.00
2019-05-12T15:36:24.305Z,3.20
2019-05-12T15:38:55.780Z,1.90
2019-05-12T15:41:24.695Z,4.13
2019-05-12T15:43:55.917Z,2.60
2019-05-12T15:46:24.909Z,2.80
2019-05-12T15:48:54.112Z,2.70
2019-05-12T15:51:23.332Z,1.57
2019-05-12T15:53:57.238Z,2.30
2019-05-12T15:56:26.401Z,3.50
2019-05-12T15:59:00.717Z,1.93
2019-05-12T16:01:26.926Z,2.33
2019-05-12T16:03:56.194Z,1.93
2019-05-12T16:06:25.406Z,1.03
2019-05-12T16:08:54.746Z,3.80
2019-05-12T16:11:24.551Z,2.23
2019-05-12T16:13:59.049Z,3.30
2019-05-12T16:16:24.803Z,3.27
2019-05-12T16:18:54.195Z,1.75
2019-05-12T16:21:23.453Z,4.47
2019-05-12T16:23:53.556Z,3.57
2019-05-12T16:26:24.262Z,1.75
2019-05-12T16:29:02.615Z,1.30
2019-05-12T16:31:24.386Z,2.33
2019-05-12T16:34:01.290Z,1.63
2019-05-12T16:36:24.469Z,1.73
2019-05-12T16:38:58.060Z,1.83
2019-05-12T16:41:27.904Z,2.77
2019-05-12T16:43:55.504Z,3.57
2019-05-12T16:46:24.823Z,1.23
2019-05-12T16:48:56.960Z,1.47
2019-05-12T16:51:24.972Z,2.98
2019-05-12T16:53:54.561Z,0.72
2019-05-12T16:56:28.023Z,2.70
2019-05-12T16:58:54.792Z,3.60
2019-05-12T17:01:26.061Z,2.33
2019-05-12T17:03:55.021Z,1.55
2019-05-12T17:06:28.645Z,1.50
2019-05-12T17:08:55.258Z,0.98
2019-05-12T17:11:29.962Z,1.37
2019-05-12T17:14:01.377Z,2.98
2019-05-12T17:16:26.269Z,1.60
2019-05-12T17:18:59.953Z,2.47
2019-05-12T17:21:26.318Z,5.25
2019-05-12T17:23:55.507Z,4.33
2019-05-12T17:26:24.790Z,2.83
2019-05-12T17:28:54.024Z,2.75
2019-05-12T17:31:23.243Z,1.85
2019-05-12T17:33:54.345Z,2.98
2019-05-12T17:36:24.210Z,7.65
2019-05-12T17:38:56.152Z,2.47
2019-05-12T17:41:24.505Z,2.02
2019-05-12T17:44:00.464Z,2.22
2019-05-12T17:46:24.584Z,3.50
2019-05-12T17:48:53.783Z,2.25
2019-05-12T17:51:26.806Z,4.80
2019-05-12T17:53:54.245Z,1.57
2019-05-12T17:56:27.385Z,2.70
2019-05-12T17:58:54.748Z,3.60
2019-05-12T18:01:31.161Z,2.00
2019-05-12T18:03:55.167Z,3.03
2019-05-12T18:06:26.867Z,1.40
2019-05-12T18:08:55.486Z,1.40
2019-05-12T18:11:24.732Z,1.00
2019-05-12T18:14:01.126Z,1.93
2019-05-12T18:16:25.107Z,3.43
2019-05-12T18:18:54.321Z,1.57
2019-05-12T18:21:30.203Z,2.77
2019-05-12T18:23:54.893Z,1.67
2019-05-12T18:26:24.621Z,3.33
2019-05-12T18:28:54.519Z,3.10
2019-05-12T18:31:25.345Z,2.93
2019-05-12T18:33:56.980Z,1.60
2019-05-12T18:36:25.633Z,1.97
2019-05-12T18:38:56.359Z,2.10
2019-05-12T18:41:25.880Z,6.37
2019-05-12T18:43:55.062Z,5.47
2019-05-12T18:46:24.295Z,1.83
2019-05-12T18:49:02.846Z,2.73
2019-05-12T18:51:24.907Z,2.37
2019-05-12T18:53:57.590Z,1.70
2019-05-12T18:56:25.226Z,2.10
2019-05-12T18:58:54.647Z,1.33
2019-05-12T19:01:24.518Z,5.67
2019-05-12T19:03:54.790Z,4.17
2019-05-12T19:06:24.195Z,3.53
2019-05-12T19:08:54.015Z,2.07
2019-05-12T19:11:31.481Z,3.57
2019-05-12T19:13:57.185Z,3.53
2019-05-12T19:16:25.473Z,1.97
2019-05-12T19:18:55.718Z,2.07
2019-05-12T19:21:25.086Z,2.70
2019-05-12T19:23:54.495Z,3.03
2019-05-12T19:26:23.768Z,4.43
2019-05-12T19:28:57.974Z,3.60
2019-05-12T19:31:24.764Z,1.33
2019-05-12T19:34:14.367Z,7.27
2019-05-12T19:36:25.061Z,2.63
2019-05-12T19:38:54.581Z,1.83
2019-05-12T19:41:24.520Z,4.17
2019-05-12T19:43:53.868Z,4.23
2019-05-12T19:46:24.028Z,4.73
2019-05-12T19:48:54.065Z,1.80
2019-05-12T19:51:27.790Z,2.30
2019-05-12T19:53:54.629Z,1.50
2019-05-12T19:56:24.089Z,2.00
2019-05-12T19:58:54.020Z,1.30
2019-05-12T20:01:32.377Z,1.33
2019-05-12T20:03:55.514Z,1.40
2019-05-12T20:06:25.389Z,2.10
2019-05-12T20:09:05.995Z,1.47
2019-05-12T20:11:31.195Z,3.90
2019-05-12T20:13:56.680Z,3.80
2019-05-12T20:16:30.305Z,2.40
2019-05-12T20:18:57.928Z,1.47
2019-05-12T20:21:28.386Z,1.73
2019-05-12T20:23:57.767Z,2.87
2019-05-12T20:26:26.982Z,1.80
2019-05-12T20:28:56.292Z,4.57
2019-05-12T20:31:27.223Z,2.80
2019-05-12T20:34:04.390Z,2.30
2019-05-12T20:36:27.766Z,4.20
2019-05-12T20:38:57.038Z,2.70
2019-05-12T20:41:26.879Z,2.13
2019-05-12T20:43:56.168Z,4.20
2019-05-12T20:46:25.959Z,2.03
2019-05-12T20:48:55.393Z,2.73
2019-05-12T20:51:24.612Z,2.67
2019-05-12T20:53:53.803Z,2.40
2019-05-12T20:56:25.000Z,4.87
2019-05-12T20:58:54.025Z,1.50
2019-05-12T21:01:28.157Z,1.87
2019-05-12T21:03:54.148Z,2.00
2019-05-12T21:06:23.752Z,3.53
2019-05-12T21:08:56.156Z,4.73
2019-05-12T21:11:24.602Z,1.40
2019-05-12T21:13:54.714Z,2.47
2019-05-12T21:16:31.266Z,1.90
2019-05-12T21:19:02.139Z,6.57
2019-05-12T21:21:33.275Z,1.33
2019-05-12T21:23:59.464Z,1.57
2019-05-12T21:26:28.357Z,2.77
2019-05-12T21:28:58.629Z,1.40
2019-05-12T21:31:30.891Z,5.90
2019-05-12T21:33:58.781Z,1.57
2019-05-12T21:36:29.612Z,1.20
2019-05-12T21:38:59.603Z,3.53
2019-05-12T21:41:29.855Z,2.93
2019-05-12T21:43:59.994Z,2.30
2019-05-12T21:46:30.016Z,1.30
2019-05-12T21:49:09.294Z,3.43
2019-05-12T21:51:30.099Z,1.63
2019-05-12T21:54:00.034Z,1.83
2019-05-12T21:56:29.688Z,3.00
2019-05-12T21:59:00.274Z,2.30
2019-05-12T22:01:35.125Z,1.60
2019-05-12T22:04:02.548Z,2.17
2019-05-12T22:06:31.562Z,2.63
2019-05-12T22:09:05.869Z,1.53
2019-05-12T22:11:35.054Z,1.57
2019-05-12T22:14:04.711Z,1.30
2019-05-12T22:16:43.232Z,2.77
2019-05-12T22:19:06.920Z,1.00
2019-05-12T22:21:44.422Z,1.47
2019-05-12T22:24:07.003Z,1.73
2019-05-12T22:26:40.322Z,1.60
2019-05-12T22:29:07.363Z,2.50
2019-05-12T22:31:38.547Z,1.20
2019-05-12T22:34:07.669Z,1.37
2019-05-12T22:36:36.792Z,1.30
2019-05-12T22:39:07.841Z,1.50
2019-05-12T22:41:41.385Z,2.47
2019-05-12T22:44:07.926Z,2.70
2019-05-12T22:46:37.091Z,2.27
2019-05-12T22:49:10.353Z,1.40
2019-05-12T22:51:37.175Z,3.73
2019-05-12T22:54:10.388Z,1.10
2019-05-12T22:56:37.309Z,3.07
2019-05-12T22:59:06.453Z,1.50
2019-05-12T23:01:41.525Z,1.57
2019-05-12T23:04:06.800Z,2.40
2019-05-12T23:06:42.077Z,2.63
2019-05-12T23:09:08.030Z,2.00
2019-05-12T23:11:37.984Z,1.93
2019-05-12T23:14:12.609Z,7.17
2019-05-12T23:16:38.495Z,3.10
2019-05-12T23:19:11.945Z,2.10
2019-05-12T23:21:38.712Z,4.37
2019-05-12T23:24:07.903Z,2.07
2019-05-12T23:26:41.733Z,1.30
2019-05-12T23:29:07.976Z,3.87
2019-05-12T23:31:37.228Z,2.33
2019-05-12T23:34:11.816Z,2.57
2019-05-12T23:36:39.217Z,1.73
2019-05-12T23:39:08.332Z,1.33
2019-05-12T23:41:37.526Z,4.20
2019-05-12T23:44:06.726Z,3.80
2019-05-12T23:46:35.985Z,3.77
2019-05-12T23:49:05.463Z,2.07
2019-05-12T23:51:34.621Z,2.03
2019-05-12T23:54:03.948Z,3.43
2019-05-12T23:56:33.729Z,2.17
2019-05-12T23:59:04.564Z,2.03
